sensor_id;sensor_type;location;lat;lon;timestamp;pressure;altitude;pressure_sealevel;temperature;humidity
18167;BME280;9208;42.688;23.404;2022-07-29T00:01:47;95626.72;;;21.70;100.00
18167;BME280;9208;42.688;23.404;2022-07-29T00:04:13;95635.50;;;21.74;100.00
18167;BME280;9208;42.688;23.404;2022-07-29T00:06:39;95623.66;;;21.81;100.00
18167;BME280;9208;42.688;23.404;2022-07-29T00:09:04;95628.16;;;21.84;100.00
18167;BME280;9208;42.688;23.404;2022-07-29T00:11:30;95646.16;;;21.83;100.00
18167;BME280;9208;42.688;23.404;2022-07-29T00:13:56;95649.72;;;21.84;100.00
18167;BME280;9208;42.688;23.404;2022-07-29T00:16:21;95650.66;;;21.86;100.00
18167;BME280;9208;42.688;23.404;2022-07-29T00:18:47;95645.44;;;21.83;100.00
18167;BME280;9208;42.688;23.404;2022-07-29T00:21:12;95648.63;;;21.87;100.00
18167;BME280;9208;42.688;23.404;2022-07-29T00:23:38;95650.47;;;21.84;100.00
18167;BME280;9208;42.688;23.404;2022-07-29T00:26:03;95645.75;;;21.79;100.00
18167;BME280;9208;42.688;23.404;2022-07-29T00:28:29;95648.00;;;21.81;100.00
18167;BME280;9208;42.688;23.404;2022-07-29T00:30:54;95641.47;;;21.78;100.00
18167;BME280;9208;42.688;23.404;2022-07-29T00:33:20;95647.97;;;21.73;100.00
18167;BME280;9208;42.688;23.404;2022-07-29T00:35:47;95641.75;;;21.67;100.00
18167;BME280;9208;42.688;23.404;2022-07-29T00:38:18;95646.16;;;21.63;100.00
18167;BME280;9208;42.688;23.404;2022-07-29T00:40:44;95636.16;;;21.67;100.00
18167;BME280;9208;42.688;23.404;2022-07-29T00:43:10;95639.19;;;21.69;100.00
18167;BME280;9208;42.688;23.404;2022-07-29T00:45:36;95631.13;;;21.66;100.00
18167;BME280;9208;42.688;23.404;2022-07-29T00:48:02;95641.44;;;21.71;100.00
18167;BME280;9208;42.688;23.404;2022-07-29T00:50:28;95642.19;;;21.71;100.00
18167;BME280;9208;42.688;23.404;2022-07-29T00:52:54;95643.59;;;21.65;100.00
18167;BME280;9208;42.688;23.404;2022-07-29T00:55:19;95649.72;;;21.63;100.00
18167;BME280;9208;42.688;23.404;2022-07-29T00:57:45;95648.00;;;21.60;100.00
18167;BME280;9208;42.688;23.404;2022-07-29T01:00:20;95645.34;;;21.55;100.00
18167;BME280;9208;42.688;23.404;2022-07-29T01:02:46;95644.41;;;21.52;100.00
18167;BME280;9208;42.688;23.404;2022-07-29T01:05:20;95641.06;;;21.54;100.00
18167;BME280;9208;42.688;23.404;2022-07-29T01:07:48;95640.66;;;21.50;100.00
18167;BME280;9208;42.688;23.404;2022-07-29T01:10:16;95636.91;;;21.47;100.00
18167;BME280;9208;42.688;23.404;2022-07-29T01:12:44;95633.41;;;21.47;100.00
18167;BME280;9208;42.688;23.404;2022-07-29T01:15:10;95627.59;;;21.45;100.00
18167;BME280;9208;42.688;23.404;2022-07-29T01:17:46;95633.81;;;21.51;100.00
18167;BME280;9208;42.688;23.404;2022-07-29T01:28:45;95634.66;;;21.46;100.00
18167;BME280;9208;42.688;23.404;2022-07-29T01:31:16;95635.97;;;21.45;100.00
18167;BME280;9208;42.688;23.404;2022-07-29T01:33:45;95632.09;;;21.48;100.00
18167;BME280;9208;42.688;23.404;2022-07-29T01:36:26;95634.53;;;21.51;100.00
18167;BME280;9208;42.688;23.404;2022-07-29T01:39:19;95640.53;;;21.55;100.00
18167;BME280;9208;42.688;23.404;2022-07-29T01:41:52;95630.63;;;21.47;100.00
18167;BME280;9208;42.688;23.404;2022-07-29T01:44:32;95619.00;;;21.35;100.00
18167;BME280;9208;42.688;23.404;2022-07-29T01:47:02;95618.78;;;21.33;100.00
18167;BME280;9208;42.688;23.404;2022-07-29T01:49:35;95617.69;;;21.36;100.00
18167;BME280;9208;42.688;23.404;2022-07-29T01:52:07;95615.31;;;21.40;100.00
18167;BME280;9208;42.688;23.404;2022-07-29T01:54:38;95610.28;;;21.39;100.00
18167;BME280;9208;42.688;23.404;2022-07-29T01:57:09;95612.13;;;21.36;100.00
18167;BME280;9208;42.688;23.404;2022-07-29T01:59:37;95608.56;;;21.36;100.00
18167;BME280;9208;42.688;23.404;2022-07-29T02:02:04;95606.00;;;21.38;100.00
18167;BME280;9208;42.688;23.404;2022-07-29T02:04:35;95612.13;;;21.36;100.00
18167;BME280;9208;42.688;23.404;2022-07-29T02:07:05;95611.03;;;21.39;100.00
18167;BME280;9208;42.688;23.404;2022-07-29T02:09:33;95613.81;;;21.39;100.00
18167;BME280;9208;42.688;23.404;2022-07-29T02:12:00;95606.94;;;21.40;100.00
18167;BME280;9208;42.688;23.404;2022-07-29T02:14:28;95603.25;;;21.45;100.00
18167;BME280;9208;42.688;23.404;2022-07-29T02:16:56;95600.81;;;21.42;100.00
18167;BME280;9208;42.688;23.404;2022-07-29T02:19:26;95600.25;;;21.43;100.00
18167;BME280;9208;42.688;23.404;2022-07-29T02:21:54;95607.34;;;21.44;100.00
18167;BME280;9208;42.688;23.404;2022-07-29T02:24:23;95604.75;;;21.46;100.00
18167;BME280;9208;42.688;23.404;2022-07-29T02:26:51;95611.41;;;21.43;100.00
18167;BME280;9208;42.688;23.404;2022-07-29T02:29:21;95612.53;;;21.40;100.00
18167;BME280;9208;42.688;23.404;2022-07-29T02:31:49;95620.88;;;21.40;100.00
18167;BME280;9208;42.688;23.404;2022-07-29T02:34:18;95619.41;;;21.39;100.00
18167;BME280;9208;42.688;23.404;2022-07-29T02:36:45;95612.16;;;21.44;100.00
18167;BME280;9208;42.688;23.404;2022-07-29T02:39:12;95606.72;;;21.38;100.00
18167;BME280;9208;42.688;23.404;2022-07-29T02:41:48;95602.09;;;21.41;100.00
18167;BME280;9208;42.688;23.404;2022-07-29T02:44:19;95595.09;;;21.47;100.00
18167;BME280;9208;42.688;23.404;2022-07-29T02:49:38;95586.31;;;21.43;100.00
18167;BME280;9208;42.688;23.404;2022-07-29T02:52:16;95587.75;;;21.37;100.00
18167;BME280;9208;42.688;23.404;2022-07-29T02:57:21;95590.94;;;21.41;100.00
18167;BME280;9208;42.688;23.404;2022-07-29T02:59:50;95589.38;;;21.32;100.00
18167;BME280;9208;42.688;23.404;2022-07-29T03:02:17;95594.97;;;21.32;100.00
18167;BME280;9208;42.688;23.404;2022-07-29T03:04:43;95594.63;;;21.36;100.00
18167;BME280;9208;42.688;23.404;2022-07-29T03:07:11;95599.59;;;21.30;100.00
18167;BME280;9208;42.688;23.404;2022-07-29T03:09:40;95588.63;;;21.32;100.00
18167;BME280;9208;42.688;23.404;2022-07-29T03:12:06;95583.63;;;21.30;100.00
18167;BME280;9208;42.688;23.404;2022-07-29T03:14:36;95585.66;;;21.30;100.00
18167;BME280;9208;42.688;23.404;2022-07-29T03:17:02;95578.19;;;21.25;100.00
18167;BME280;9208;42.688;23.404;2022-07-29T03:19:28;95583.81;;;21.32;100.00
18167;BME280;9208;42.688;23.404;2022-07-29T03:21:57;95595.72;;;21.33;100.00
18167;BME280;9208;42.688;23.404;2022-07-29T03:24:33;95587.91;;;21.31;100.00
18167;BME280;9208;42.688;23.404;2022-07-29T03:26:59;95582.59;;;21.20;100.00
18167;BME280;9208;42.688;23.404;2022-07-29T03:29:25;95586.53;;;21.25;100.00
18167;BME280;9208;42.688;23.404;2022-07-29T03:31:51;95587.44;;;21.20;100.00
18167;BME280;9208;42.688;23.404;2022-07-29T03:34:17;95590.94;;;21.20;100.00
18167;BME280;9208;42.688;23.404;2022-07-29T03:36:42;95582.94;;;21.17;100.00
18167;BME280;9208;42.688;23.404;2022-07-29T03:39:09;95593.31;;;21.16;100.00
18167;BME280;9208;42.688;23.404;2022-07-29T03:41:37;95585.78;;;21.04;100.00
18167;BME280;9208;42.688;23.404;2022-07-29T03:44:05;95597.88;;;21.06;100.00
18167;BME280;9208;42.688;23.404;2022-07-29T03:46:33;95589.88;;;21.03;100.00
18167;BME280;9208;42.688;23.404;2022-07-29T03:49:03;95595.84;;;21.07;100.00
18167;BME280;9208;42.688;23.404;2022-07-29T03:51:29;95601.38;;;20.99;100.00
18167;BME280;9208;42.688;23.404;2022-07-29T03:53:56;95599.94;;;21.06;100.00
18167;BME280;9208;42.688;23.404;2022-07-29T03:56:22;95604.16;;;20.99;100.00
18167;BME280;9208;42.688;23.404;2022-07-29T03:58:51;95596.44;;;20.92;100.00
18167;BME280;9208;42.688;23.404;2022-07-29T04:01:18;95598.38;;;20.84;100.00
18167;BME280;9208;42.688;23.404;2022-07-29T04:03:44;95609.53;;;20.84;100.00
18167;BME280;9208;42.688;23.404;2022-07-29T04:06:10;95611.03;;;20.85;100.00
18167;BME280;9208;42.688;23.404;2022-07-29T04:08:36;95608.25;;;20.85;100.00
18167;BME280;9208;42.688;23.404;2022-07-29T04:11:02;95611.59;;;20.84;100.00
18167;BME280;9208;42.688;23.404;2022-07-29T04:13:28;95605.25;;;20.83;100.00
18167;BME280;9208;42.688;23.404;2022-07-29T04:15:53;95600.97;;;20.82;100.00
18167;BME280;9208;42.688;23.404;2022-07-29T04:18:19;95608.13;;;20.91;100.00
18167;BME280;9208;42.688;23.404;2022-07-29T04:20:44;95611.00;;;20.98;100.00
18167;BME280;9208;42.688;23.404;2022-07-29T04:23:10;95607.75;;;21.07;100.00
18167;BME280;9208;42.688;23.404;2022-07-29T04:25:41;95600.00;;;21.13;100.00
18167;BME280;9208;42.688;23.404;2022-07-29T04:28:08;95613.88;;;21.26;100.00
18167;BME280;9208;42.688;23.404;2022-07-29T04:30:36;95604.81;;;21.33;100.00
18167;BME280;9208;42.688;23.404;2022-07-29T04:33:04;95604.22;;;21.48;100.00
18167;BME280;9208;42.688;23.404;2022-07-29T04:35:30;95601.53;;;21.63;100.00
18167;BME280;9208;42.688;23.404;2022-07-29T04:37:58;95599.84;;;21.80;100.00
18167;BME280;9208;42.688;23.404;2022-07-29T04:40:23;95609.47;;;22.00;100.00
18167;BME280;9208;42.688;23.404;2022-07-29T04:42:49;95609.38;;;22.20;100.00
18167;BME280;9208;42.688;23.404;2022-07-29T04:45:14;95613.00;;;22.36;100.00
18167;BME280;9208;42.688;23.404;2022-07-29T04:47:40;95620.72;;;22.50;100.00
18167;BME280;9208;42.688;23.404;2022-07-29T04:50:07;95626.19;;;22.63;100.00
18167;BME280;9208;42.688;23.404;2022-07-29T04:52:33;95627.72;;;22.79;100.00
18167;BME280;9208;42.688;23.404;2022-07-29T04:54:59;95627.78;;;22.94;100.00
18167;BME280;9208;42.688;23.404;2022-07-29T04:57:25;95620.00;;;23.08;100.00
18167;BME280;9208;42.688;23.404;2022-07-29T04:59:51;95621.47;;;23.09;100.00
18167;BME280;9208;42.688;23.404;2022-07-29T05:02:17;95625.44;;;23.21;100.00
18167;BME280;9208;42.688;23.404;2022-07-29T05:04:42;95638.31;;;23.24;100.00
18167;BME280;9208;42.688;23.404;2022-07-29T05:07:08;95628.25;;;23.36;100.00
18167;BME280;9208;42.688;23.404;2022-07-29T05:09:33;95629.56;;;23.42;100.00
18167;BME280;9208;42.688;23.404;2022-07-29T05:11:58;95631.81;;;23.51;100.00
18167;BME280;9208;42.688;23.404;2022-07-29T05:14:24;95625.09;;;23.62;100.00
18167;BME280;9208;42.688;23.404;2022-07-29T05:16:50;95637.78;;;23.70;100.00
18167;BME280;9208;42.688;23.404;2022-07-29T05:19:16;95642.28;;;23.73;100.00
18167;BME280;9208;42.688;23.404;2022-07-29T05:21:42;95639.84;;;23.77;100.00
18167;BME280;9208;42.688;23.404;2022-07-29T05:24:07;95641.88;;;23.84;100.00
18167;BME280;9208;42.688;23.404;2022-07-29T05:26:33;95642.66;;;23.92;100.00
18167;BME280;9208;42.688;23.404;2022-07-29T05:28:58;95644.91;;;24.01;100.00
18167;BME280;9208;42.688;23.404;2022-07-29T05:31:24;95645.06;;;24.03;100.00
18167;BME280;9208;42.688;23.404;2022-07-29T05:33:49;95646.94;;;24.08;100.00
18167;BME280;9208;42.688;23.404;2022-07-29T05:36:15;95642.63;;;24.07;100.00
18167;BME280;9208;42.688;23.404;2022-07-29T05:38:40;95639.25;;;24.16;100.00
18167;BME280;9208;42.688;23.404;2022-07-29T05:41:05;95636.81;;;24.20;100.00
18167;BME280;9208;42.688;23.404;2022-07-29T05:43:32;95638.16;;;24.19;100.00
18167;BME280;9208;42.688;23.404;2022-07-29T05:45:57;95644.66;;;24.22;100.00
18167;BME280;9208;42.688;23.404;2022-07-29T05:48:23;95642.44;;;24.13;100.00
18167;BME280;9208;42.688;23.404;2022-07-29T05:50:49;95650.47;;;24.09;100.00
18167;BME280;9208;42.688;23.404;2022-07-29T05:53:14;95649.94;;;24.10;100.00
18167;BME280;9208;42.688;23.404;2022-07-29T05:55:40;95645.63;;;24.09;100.00
18167;BME280;9208;42.688;23.404;2022-07-29T05:58:06;95645.41;;;24.15;100.00
18167;BME280;9208;42.688;23.404;2022-07-29T06:00:31;95649.53;;;24.21;100.00
18167;BME280;9208;42.688;23.404;2022-07-29T06:02:56;95652.31;;;24.29;100.00
18167;BME280;9208;42.688;23.404;2022-07-29T06:05:22;95653.25;;;24.31;100.00
18167;BME280;9208;42.688;23.404;2022-07-29T06:07:48;95653.03;;;24.37;100.00
18167;BME280;9208;42.688;23.404;2022-07-29T06:10:14;95653.78;;;24.45;100.00
18167;BME280;9208;42.688;23.404;2022-07-29T06:12:39;95656.00;;;24.46;100.00
18167;BME280;9208;42.688;23.404;2022-07-29T06:15:05;95655.81;;;24.52;100.00
18167;BME280;9208;42.688;23.404;2022-07-29T06:17:31;95662.16;;;24.52;100.00
18167;BME280;9208;42.688;23.404;2022-07-29T06:19:57;95657.09;;;24.58;100.00
18167;BME280;9208;42.688;23.404;2022-07-29T06:22:22;95662.72;;;24.66;100.00
18167;BME280;9208;42.688;23.404;2022-07-29T06:24:47;95646.97;;;24.70;100.00
18167;BME280;9208;42.688;23.404;2022-07-29T06:27:13;95651.63;;;24.75;100.00
18167;BME280;9208;42.688;23.404;2022-07-29T06:29:39;95650.88;;;24.82;100.00
18167;BME280;9208;42.688;23.404;2022-07-29T06:32:05;95659.81;;;24.88;100.00
18167;BME280;9208;42.688;23.404;2022-07-29T06:34:30;95649.09;;;25.02;100.00
18167;BME280;9208;42.688;23.404;2022-07-29T06:36:56;95649.56;;;25.15;100.00
18167;BME280;9208;42.688;23.404;2022-07-29T06:39:21;95651.41;;;25.28;100.00
18167;BME280;9208;42.688;23.404;2022-07-29T06:41:47;95651.13;;;25.41;100.00
18167;BME280;9208;42.688;23.404;2022-07-29T06:44:17;95646.06;;;25.47;100.00
18167;BME280;9208;42.688;23.404;2022-07-29T06:46:43;95640.44;;;25.47;100.00
18167;BME280;9208;42.688;23.404;2022-07-29T06:49:09;95646.00;;;25.54;100.00
18167;BME280;9208;42.688;23.404;2022-07-29T06:51:35;95642.97;;;25.60;100.00
18167;BME280;9208;42.688;23.404;2022-07-29T06:54:01;95645.72;;;25.67;100.00
18167;BME280;9208;42.688;23.404;2022-07-29T06:56:26;95646.06;;;25.72;98.50
18167;BME280;9208;42.688;23.404;2022-07-29T06:58:52;95645.81;;;25.77;97.98
18167;BME280;9208;42.688;23.404;2022-07-29T07:01:17;95640.16;;;25.85;97.66
18167;BME280;9208;42.688;23.404;2022-07-29T07:03:43;95648.56;;;25.85;95.58
18167;BME280;9208;42.688;23.404;2022-07-29T07:06:08;95641.06;;;25.87;95.47
18167;BME280;9208;42.688;23.404;2022-07-29T07:08:34;95639.53;;;25.86;95.05
18167;BME280;9208;42.688;23.404;2022-07-29T07:10:59;95639.53;;;25.86;94.10
18167;BME280;9208;42.688;23.404;2022-07-29T07:13:25;95634.88;;;25.89;94.22
18167;BME280;9208;42.688;23.404;2022-07-29T07:15:51;95635.56;;;25.97;94.44
18167;BME280;9208;42.688;23.404;2022-07-29T07:18:17;95645.16;;;25.94;93.84
18167;BME280;9208;42.688;23.404;2022-07-29T07:20:43;95640.03;;;26.00;94.27
18167;BME280;9208;42.688;23.404;2022-07-29T07:23:10;95638.63;;;26.08;94.26
18167;BME280;9208;42.688;23.404;2022-07-29T07:25:35;95632.78;;;26.14;94.20
18167;BME280;9208;42.688;23.404;2022-07-29T07:28:01;95632.69;;;26.21;92.82
18167;BME280;9208;42.688;23.404;2022-07-29T07:30:26;95632.53;;;26.19;92.97
18167;BME280;9208;42.688;23.404;2022-07-29T07:32:53;95628.91;;;26.26;93.47
18167;BME280;9208;42.688;23.404;2022-07-29T07:35:18;95625.75;;;26.39;93.48
18167;BME280;9208;42.688;23.404;2022-07-29T07:37:46;95622.72;;;26.45;92.55
18167;BME280;9208;42.688;23.404;2022-07-29T07:40:12;95622.63;;;26.52;92.51
18167;BME280;9208;42.688;23.404;2022-07-29T07:42:38;95624.72;;;26.69;92.26
18167;BME280;9208;42.688;23.404;2022-07-29T07:45:04;95616.94;;;26.77;90.92
18167;BME280;9208;42.688;23.404;2022-07-29T07:47:31;95612.69;;;26.85;90.61
18167;BME280;9208;42.688;23.404;2022-07-29T07:49:57;95618.13;;;27.00;90.08
18167;BME280;9208;42.688;23.404;2022-07-29T07:52:22;95613.03;;;27.16;89.44
18167;BME280;9208;42.688;23.404;2022-07-29T07:54:48;95623.06;;;27.26;88.81
18167;BME280;9208;42.688;23.404;2022-07-29T07:57:16;95612.41;;;27.34;88.35
18167;BME280;9208;42.688;23.404;2022-07-29T07:59:41;95617.06;;;27.49;87.08
18167;BME280;9208;42.688;23.404;2022-07-29T08:02:07;95626.00;;;27.55;85.92
18167;BME280;9208;42.688;23.404;2022-07-29T08:04:33;95628.41;;;27.68;85.37
18167;BME280;9208;42.688;23.404;2022-07-29T08:07:00;95615.53;;;27.74;85.26
18167;BME280;9208;42.688;23.404;2022-07-29T08:09:27;95627.31;;;27.80;84.25
18167;BME280;9208;42.688;23.404;2022-07-29T08:11:53;95630.75;;;27.88;84.18
18167;BME280;9208;42.688;23.404;2022-07-29T08:14:19;95640.41;;;27.95;81.81
18167;BME280;9208;42.688;23.404;2022-07-29T08:16:45;95639.50;;;27.92;81.45
18167;BME280;9208;42.688;23.404;2022-07-29T08:19:10;95632.13;;;27.97;80.69
18167;BME280;9208;42.688;23.404;2022-07-29T08:21:36;95631.53;;;27.98;80.67
18167;BME280;9208;42.688;23.404;2022-07-29T08:24:02;95627.81;;;27.96;80.73
18167;BME280;9208;42.688;23.404;2022-07-29T08:26:46;95613.41;;;27.92;81.26
18167;BME280;9208;42.688;23.404;2022-07-29T08:29:12;95605.84;;;27.94;81.61
18167;BME280;9208;42.688;23.404;2022-07-29T08:31:38;95609.13;;;28.00;81.64
18167;BME280;9208;42.688;23.404;2022-07-29T08:34:04;95609.72;;;27.99;81.47
18167;BME280;9208;42.688;23.404;2022-07-29T08:36:31;95605.59;;;28.19;80.92
18167;BME280;9208;42.688;23.404;2022-07-29T08:38:56;95620.28;;;28.17;80.53
18167;BME280;9208;42.688;23.404;2022-07-29T08:41:22;95615.25;;;28.16;80.66
18167;BME280;9208;42.688;23.404;2022-07-29T08:43:49;95621.94;;;28.20;79.18
18167;BME280;9208;42.688;23.404;2022-07-29T08:46:15;95619.22;;;28.13;79.22
18167;BME280;9208;42.688;23.404;2022-07-29T08:48:42;95605.75;;;28.21;80.79
18167;BME280;9208;42.688;23.404;2022-07-29T08:51:08;95611.25;;;28.28;80.51
18167;BME280;9208;42.688;23.404;2022-07-29T08:53:40;95616.31;;;28.39;79.49
18167;BME280;9208;42.688;23.404;2022-07-29T08:56:06;95622.72;;;28.49;78.22
18167;BME280;9208;42.688;23.404;2022-07-29T08:58:33;95623.19;;;28.46;78.42
18167;BME280;9208;42.688;23.404;2022-07-29T09:01:01;95623.03;;;28.63;76.89
18167;BME280;9208;42.688;23.404;2022-07-29T09:03:30;95636.66;;;28.76;75.59
18167;BME280;9208;42.688;23.404;2022-07-29T09:05:58;95656.88;;;28.82;72.50
18167;BME280;9208;42.688;23.404;2022-07-29T09:08:24;95661.50;;;28.87;72.78
18167;BME280;9208;42.688;23.404;2022-07-29T09:10:50;95671.03;;;29.01;71.44
18167;BME280;9208;42.688;23.404;2022-07-29T09:13:17;95686.16;;;29.05;69.05
18167;BME280;9208;42.688;23.404;2022-07-29T09:15:43;95673.97;;;29.12;70.45
18167;BME280;9208;42.688;23.404;2022-07-29T09:18:09;95676.50;;;29.18;68.12
18167;BME280;9208;42.688;23.404;2022-07-29T09:20:34;95685.41;;;29.24;66.76
18167;BME280;9208;42.688;23.404;2022-07-29T09:23:18;95673.22;;;29.31;68.04
18167;BME280;9208;42.688;23.404;2022-07-29T09:25:44;95673.50;;;29.35;67.62
18167;BME280;9208;42.688;23.404;2022-07-29T09:28:12;95662.34;;;29.37;67.97
18167;BME280;9208;42.688;23.404;2022-07-29T09:30:55;95666.53;;;29.26;67.11
18167;BME280;9208;42.688;23.404;2022-07-29T09:33:22;95673.06;;;29.29;66.95
18167;BME280;9208;42.688;23.404;2022-07-29T09:36:03;95657.59;;;29.30;67.25
18167;BME280;9208;42.688;23.404;2022-07-29T09:38:29;95656.88;;;29.20;67.81
18167;BME280;9208;42.688;23.404;2022-07-29T09:41:00;95642.91;;;29.12;68.41
18167;BME280;9208;42.688;23.404;2022-07-29T09:43:25;95661.78;;;29.10;66.55
18167;BME280;9208;42.688;23.404;2022-07-29T09:45:51;95654.34;;;29.14;66.36
18167;BME280;9208;42.688;23.404;2022-07-29T09:48:21;95660.28;;;29.18;65.60
18167;BME280;9208;42.688;23.404;2022-07-29T09:50:49;95641.25;;;29.28;66.78
18167;BME280;9208;42.688;23.404;2022-07-29T09:53:34;95659.38;;;29.35;64.67
18167;BME280;9208;42.688;23.404;2022-07-29T09:56:00;95645.81;;;29.43;65.33
18167;BME280;9208;42.688;23.404;2022-07-29T09:58:26;95651.34;;;29.41;64.17
18167;BME280;9208;42.688;23.404;2022-07-29T10:00:53;95657.88;;;29.43;63.00
18167;BME280;9208;42.688;23.404;2022-07-29T10:03:20;95662.88;;;29.54;63.23
18167;BME280;9208;42.688;23.404;2022-07-29T10:05:46;95641.94;;;29.88;63.91
18167;BME280;9208;42.688;23.404;2022-07-29T10:08:29;95667.25;;;29.95;61.44
18167;BME280;9208;42.688;23.404;2022-07-29T10:11:10;95672.56;;;30.01;60.76
18167;BME280;9208;42.688;23.404;2022-07-29T10:13:36;95662.69;;;30.11;60.42
18167;BME280;9208;42.688;23.404;2022-07-29T10:16:02;95687.25;;;30.18;58.48
18167;BME280;9208;42.688;23.404;2022-07-29T10:18:28;95688.41;;;30.25;57.64
18167;BME280;9208;42.688;23.404;2022-07-29T10:20:54;95669.28;;;30.35;59.37
18167;BME280;9208;42.688;23.404;2022-07-29T10:23:20;95673.97;;;30.42;58.97
18167;BME280;9208;42.688;23.404;2022-07-29T10:25:45;95667.00;;;30.43;58.54
18167;BME280;9208;42.688;23.404;2022-07-29T10:28:11;95679.03;;;30.43;56.64
18167;BME280;9208;42.688;23.404;2022-07-29T10:30:37;95676.63;;;30.49;57.83
18167;BME280;9208;42.688;23.404;2022-07-29T10:33:51;95691.09;;;30.65;55.12
18167;BME280;9208;42.688;23.404;2022-07-29T10:36:32;95696.34;;;30.68;54.04
18167;BME280;9208;42.688;23.404;2022-07-29T10:39:26;95692.28;;;30.71;55.06
18167;BME280;9208;42.688;23.404;2022-07-29T10:42:11;95707.47;;;30.76;53.02
18167;BME280;9208;42.688;23.404;2022-07-29T10:44:40;95692.47;;;30.64;53.85
18167;BME280;9208;42.688;23.404;2022-07-29T10:47:07;95675.78;;;30.68;54.90
18167;BME280;9208;42.688;23.404;2022-07-29T10:49:32;95674.03;;;30.84;54.38
18167;BME280;9208;42.688;23.404;2022-07-29T10:52:08;95684.94;;;30.78;52.90
18167;BME280;9208;42.688;23.404;2022-07-29T10:54:38;95673.75;;;30.80;54.07
18167;BME280;9208;42.688;23.404;2022-07-29T10:59:40;95650.56;;;30.93;54.89
18167;BME280;9208;42.688;23.404;2022-07-29T11:05:15;95628.94;;;31.09;55.63
18167;BME280;9208;42.688;23.404;2022-07-29T11:08:23;95630.50;;;31.21;55.39
18167;BME280;9208;42.688;23.404;2022-07-29T11:10:50;95632.84;;;31.25;55.16
18167;BME280;9208;42.688;23.404;2022-07-29T11:16:13;95637.81;;;31.47;54.70
18167;BME280;9208;42.688;23.404;2022-07-29T11:21:36;95606.88;;;31.40;55.17
18167;BME280;9208;42.688;23.404;2022-07-29T11:29:39;95616.94;;;31.75;53.64
18167;BME280;9208;42.688;23.404;2022-07-29T11:32:13;95637.50;;;31.76;52.49
18167;BME280;9208;42.688;23.404;2022-07-29T11:34:45;95611.38;;;31.77;53.99
18167;BME280;9208;42.688;23.404;2022-07-29T11:47:27;95637.16;;;31.93;51.92
18167;BME280;9208;42.688;23.404;2022-07-29T11:49:55;95620.38;;;31.97;51.16
18167;BME280;9208;42.688;23.404;2022-07-29T11:52:22;95624.19;;;31.90;51.60
18167;BME280;9208;42.688;23.404;2022-07-29T11:54:49;95625.81;;;31.93;51.15
18167;BME280;9208;42.688;23.404;2022-07-29T11:57:16;95624.34;;;31.80;51.29
18167;BME280;9208;42.688;23.404;2022-07-29T11:59:44;95606.06;;;31.95;51.85
18167;BME280;9208;42.688;23.404;2022-07-29T12:02:10;95613.25;;;31.96;51.15
18167;BME280;9208;42.688;23.404;2022-07-29T12:04:54;95609.88;;;32.11;52.73
18167;BME280;9208;42.688;23.404;2022-07-29T12:07:31;95628.25;;;32.22;49.76
18167;BME280;9208;42.688;23.404;2022-07-29T12:09:57;95610.72;;;32.25;50.88
18167;BME280;9208;42.688;23.404;2022-07-29T12:12:22;95613.94;;;32.43;50.82
18167;BME280;9208;42.688;23.404;2022-07-29T12:14:48;95618.34;;;32.57;49.88
18167;BME280;9208;42.688;23.404;2022-07-29T12:17:34;95622.81;;;32.85;49.30
18167;BME280;9208;42.688;23.404;2022-07-29T12:20:04;95627.84;;;32.98;49.11
18167;BME280;9208;42.688;23.404;2022-07-29T12:22:32;95635.75;;;33.00;48.31
18167;BME280;9208;42.688;23.404;2022-07-29T12:25:03;95640.34;;;32.93;47.21
18167;BME280;9208;42.688;23.404;2022-07-29T12:27:30;95643.94;;;32.94;47.10
18167;BME280;9208;42.688;23.404;2022-07-29T12:30:00;95629.25;;;32.86;48.43
18167;BME280;9208;42.688;23.404;2022-07-29T12:32:34;95636.53;;;32.89;47.69
18167;BME280;9208;42.688;23.404;2022-07-29T12:35:03;95636.78;;;32.93;46.80
18167;BME280;9208;42.688;23.404;2022-07-29T12:37:29;95642.94;;;32.89;45.98
18167;BME280;9208;42.688;23.404;2022-07-29T12:39:54;95641.38;;;32.75;45.90
18167;BME280;9208;42.688;23.404;2022-07-29T12:42:20;95637.69;;;32.72;45.86
18167;BME280;9208;42.688;23.404;2022-07-29T12:44:47;95643.22;;;32.70;45.75
18167;BME280;9208;42.688;23.404;2022-07-29T12:47:14;95629.94;;;32.61;46.36
18167;BME280;9208;42.688;23.404;2022-07-29T12:49:40;95626.97;;;32.59;45.87
18167;BME280;9208;42.688;23.404;2022-07-29T12:54:53;95629.06;;;32.59;46.01
18167;BME280;9208;42.688;23.404;2022-07-29T12:57:19;95618.34;;;32.57;45.60
18167;BME280;9208;42.688;23.404;2022-07-29T12:59:58;95610.72;;;32.48;45.71
18167;BME280;9208;42.688;23.404;2022-07-29T13:02:24;95594.34;;;32.72;46.89
18167;BME280;9208;42.688;23.404;2022-07-29T13:04:57;95595.19;;;32.86;46.55
18167;BME280;9208;42.688;23.404;2022-07-29T13:07:28;95602.75;;;32.81;45.08
18167;BME280;9208;42.688;23.404;2022-07-29T13:10:16;95603.63;;;32.72;45.43
18167;BME280;9208;42.688;23.404;2022-07-29T13:13:11;95599.03;;;32.79;45.64
18167;BME280;9208;42.688;23.404;2022-07-29T13:15:45;95594.22;;;32.81;45.47
18167;BME280;9208;42.688;23.404;2022-07-29T13:18:34;95598.78;;;32.86;44.75
18167;BME280;9208;42.688;23.404;2022-07-29T13:21:15;95602.22;;;32.85;44.25
18167;BME280;9208;42.688;23.404;2022-07-29T13:23:41;95594.22;;;32.81;44.79
18167;BME280;9208;42.688;23.404;2022-07-29T13:26:08;95583.47;;;32.80;44.95
18167;BME280;9208;42.688;23.404;2022-07-29T13:28:34;95584.47;;;32.73;44.40
18167;BME280;9208;42.688;23.404;2022-07-29T13:31:01;95583.84;;;32.74;44.50
18167;BME280;9208;42.688;23.404;2022-07-29T13:33:26;95583.00;;;32.72;45.01
18167;BME280;9208;42.688;23.404;2022-07-29T13:35:52;95571.84;;;32.87;46.29
18167;BME280;9208;42.688;23.404;2022-07-29T13:38:17;95564.22;;;33.03;46.55
18167;BME280;9208;42.688;23.404;2022-07-29T13:40:43;95580.13;;;33.08;45.04
18167;BME280;9208;42.688;23.404;2022-07-29T13:43:09;95563.44;;;33.28;45.45
18167;BME280;9208;42.688;23.404;2022-07-29T13:45:35;95565.28;;;33.35;45.70